sensor_id;sensor_type;location;lat;lon;timestamp;temperature;humidity
29713;DHT22;16623;53.632;10.016;2022-12-10T00:00:38;-0.60;99.90
29713;DHT22;16623;53.632;10.016;2022-12-10T00:03:04;1.10;99.90
29713;DHT22;16623;53.632;10.016;2022-12-10T00:05:33;1.00;99.90
29713;DHT22;16623;53.632;10.016;2022-12-10T00:07:58;1.10;99.90
29713;DHT22;16623;53.632;10.016;2022-12-10T00:10:24;1.10;99.90
29713;DHT22;16623;53.632;10.016;2022-12-10T00:12:49;1.10;99.90
29713;DHT22;16623;53.632;10.016;2022-12-10T00:15:15;1.10;99.90
29713;DHT22;16623;53.632;10.016;2022-12-10T00:17:41;1.10;99.90
29713;DHT22;16623;53.632;10.016;2022-12-10T00:20:08;1.10;99.90
29713;DHT22;16623;53.632;10.016;2022-12-10T00:22:35;1.10;99.90
29713;DHT22;16623;53.632;10.016;2022-12-10T00:25:01;1.20;99.90
29713;DHT22;16623;53.632;10.016;2022-12-10T00:27:26;1.10;99.90
29713;DHT22;16623;53.632;10.016;2022-12-10T00:29:52;1.20;99.90
29713;DHT22;16623;53.632;10.016;2022-12-10T00:32:17;1.10;99.90
29713;DHT22;16623;53.632;10.016;2022-12-10T00:34:43;1.00;99.90
29713;DHT22;16623;53.632;10.016;2022-12-10T00:37:08;1.00;99.90
29713;DHT22;16623;53.632;10.016;2022-12-10T00:39:34;1.00;99.90
29713;DHT22;16623;53.632;10.016;2022-12-10T00:42:00;1.00;99.90
29713;DHT22;16623;53.632;10.016;2022-12-10T00:44:25;1.00;99.90
29713;DHT22;16623;53.632;10.016;2022-12-10T00:46:51;1.20;99.90
29713;DHT22;16623;53.632;10.016;2022-12-10T00:49:16;1.10;99.90
29713;DHT22;16623;53.632;10.016;2022-12-10T00:51:42;1.20;99.90
29713;DHT22;16623;53.632;10.016;2022-12-10T00:54:08;1.30;99.90
29713;DHT22;16623;53.632;10.016;2022-12-10T00:56:35;1.20;99.90
29713;DHT22;16623;53.632;10.016;2022-12-10T00:59:01;1.30;99.90
29713;DHT22;16623;53.632;10.016;2022-12-10T01:01:30;1.20;99.90
29713;DHT22;16623;53.632;10.016;2022-12-10T01:03:59;1.10;99.90
29713;DHT22;16623;53.632;10.016;2022-12-10T01:06:28;1.10;99.90
29713;DHT22;16623;53.632;10.016;2022-12-10T01:08:57;0.90;99.90
29713;DHT22;16623;53.632;10.016;2022-12-10T01:11:26;0.90;99.90
29713;DHT22;16623;53.632;10.016;2022-12-10T01:13:53;0.80;99.90
29713;DHT22;16623;53.632;10.016;2022-12-10T01:16:20;0.90;99.90
29713;DHT22;16623;53.632;10.016;2022-12-10T01:18:46;0.90;99.90
29713;DHT22;16623;53.632;10.016;2022-12-10T01:21:17;0.80;99.90
29713;DHT22;16623;53.632;10.016;2022-12-10T01:23:45;0.90;99.90
29713;DHT22;16623;53.632;10.016;2022-12-10T01:26:14;1.00;99.90
29713;DHT22;16623;53.632;10.016;2022-12-10T01:28:41;1.00;99.90
29713;DHT22;16623;53.632;10.016;2022-12-10T01:31:14;0.90;99.90
29713;DHT22;16623;53.632;10.016;2022-12-10T01:33:40;1.00;99.90
29713;DHT22;16623;53.632;10.016;2022-12-10T01:36:09;0.90;99.90
29713;DHT22;16623;53.632;10.016;2022-12-10T01:38:36;1.00;99.90
29713;DHT22;16623;53.632;10.016;2022-12-10T01:41:02;1.00;99.90
29713;DHT22;16623;53.632;10.016;2022-12-10T01:43:46;1.00;99.90
29713;DHT22;16623;53.632;10.016;2022-12-10T01:46:13;1.00;99.90
29713;DHT22;16623;53.632;10.016;2022-12-10T01:48:38;1.00;99.90
29713;DHT22;16623;53.632;10.016;2022-12-10T01:51:04;1.20;99.90
29713;DHT22;16623;53.632;10.016;2022-12-10T01:53:30;1.00;99.90
29713;DHT22;16623;53.632;10.016;2022-12-10T01:55:56;1.10;99.90
29713;DHT22;16623;53.632;10.016;2022-12-10T01:58:21;1.10;99.90
29713;DHT22;16623;53.632;10.016;2022-12-10T02:03:56;0.90;99.90
29713;DHT22;16623;53.632;10.016;2022-12-10T02:06:38;0.90;99.90
29713;DHT22;16623;53.632;10.016;2022-12-10T02:09:19;0.90;99.90
29713;DHT22;16623;53.632;10.016;2022-12-10T02:12:29;1.00;99.90
29713;DHT22;16623;53.632;10.016;2022-12-10T02:15:05;0.90;99.90
29713;DHT22;16623;53.632;10.016;2022-12-10T02:17:52;0.90;99.90
29713;DHT22;16623;53.632;10.016;2022-12-10T02:20:38;0.90;99.90
29713;DHT22;16623;53.632;10.016;2022-12-10T02:23:16;1.00;99.90
29713;DHT22;16623;53.632;10.016;2022-12-10T02:25:54;0.90;99.90
29713;DHT22;16623;53.632;10.016;2022-12-10T02:28:41;0.90;99.90
29713;DHT22;16623;53.632;10.016;2022-12-10T02:31:11;0.90;99.90
29713;DHT22;16623;53.632;10.016;2022-12-10T02:33:45;1.00;99.90
29713;DHT22;16623;53.632;10.016;2022-12-10T02:36:13;1.00;99.90
29713;DHT22;16623;53.632;10.016;2022-12-10T02:38:40;0.90;99.90
29713;DHT22;16623;53.632;10.016;2022-12-10T02:41:18;1.00;99.90
29713;DHT22;16623;53.632;10.016;2022-12-10T02:43:46;1.00;99.90
29713;DHT22;16623;53.632;10.016;2022-12-10T02:46:13;1.00;99.90
29713;DHT22;16623;53.632;10.016;2022-12-10T02:48:39;1.00;99.90
29713;DHT22;16623;53.632;10.016;2022-12-10T02:51:05;0.90;99.90
29713;DHT22;16623;53.632;10.016;2022-12-10T02:53:31;0.90;99.90
29713;DHT22;16623;53.632;10.016;2022-12-10T02:56:13;1.00;99.90
29713;DHT22;16623;53.632;10.016;2022-12-10T02:59:24;1.10;99.90
29713;DHT22;16623;53.632;10.016;2022-12-10T03:01:56;0.90;99.90
29713;DHT22;16623;53.632;10.016;2022-12-10T03:04:51;0.90;99.90
29713;DHT22;16623;53.632;10.016;2022-12-10T03:07:33;0.90;99.90
29713;DHT22;16623;53.632;10.016;2022-12-10T03:10:09;0.90;99.90
29713;DHT22;16623;53.632;10.016;2022-12-10T03:12:46;1.00;99.90
29713;DHT22;16623;53.632;10.016;2022-12-10T03:15:13;1.10;99.90
29713;DHT22;16623;53.632;10.016;2022-12-10T03:17:41;1.00;99.90
29713;DHT22;16623;53.632;10.016;2022-12-10T03:20:11;1.00;99.90
29713;DHT22;16623;53.632;10.016;2022-12-10T03:22:39;1.00;99.90
29713;DHT22;16623;53.632;10.016;2022-12-10T03:25:08;1.00;99.90
29713;DHT22;16623;53.632;10.016;2022-12-10T03:27:37;1.00;99.90
29713;DHT22;16623;53.632;10.016;2022-12-10T03:30:04;1.00;99.90
29713;DHT22;16623;53.632;10.016;2022-12-10T03:32:30;1.00;99.90
29713;DHT22;16623;53.632;10.016;2022-12-10T03:34:58;1.00;99.90
29713;DHT22;16623;53.632;10.016;2022-12-10T03:37:25;1.20;99.90
29713;DHT22;16623;53.632;10.016;2022-12-10T03:39:51;1.00;99.90
29713;DHT22;16623;53.632;10.016;2022-12-10T03:42:17;1.00;99.90
29713;DHT22;16623;53.632;10.016;2022-12-10T03:44:43;1.00;99.90
29713;DHT22;16623;53.632;10.016;2022-12-10T03:47:12;1.00;99.90
29713;DHT22;16623;53.632;10.016;2022-12-10T03:49:38;1.10;99.90
29713;DHT22;16623;53.632;10.016;2022-12-10T03:52:04;1.10;99.90
29713;DHT22;16623;53.632;10.016;2022-12-10T03:54:29;1.10;99.90
29713;DHT22;16623;53.632;10.016;2022-12-10T03:56:55;1.10;99.90
29713;DHT22;16623;53.632;10.016;2022-12-10T03:59:20;1.00;99.90
29713;DHT22;16623;53.632;10.016;2022-12-10T04:01:46;1.10;99.90
29713;DHT22;16623;53.632;10.016;2022-12-10T04:04:12;1.00;99.90
29713;DHT22;16623;53.632;10.016;2022-12-10T04:06:38;1.20;99.90
29713;DHT22;16623;53.632;10.016;2022-12-10T04:09:03;1.10;99.90
29713;DHT22;16623;53.632;10.016;2022-12-10T04:11:29;1.20;99.90
29713;DHT22;16623;53.632;10.016;2022-12-10T04:13:54;1.10;99.90
29713;DHT22;16623;53.632;10.016;2022-12-10T04:16:39;1.10;99.90
29713;DHT22;16623;53.632;10.016;2022-12-10T04:19:13;1.00;99.90
29713;DHT22;16623;53.632;10.016;2022-12-10T04:21:40;-0.80;99.90
29713;DHT22;16623;53.632;10.016;2022-12-10T04:24:27;1.00;99.90
29713;DHT22;16623;53.632;10.016;2022-12-10T04:27:16;0.90;99.90
29713;DHT22;16623;53.632;10.016;2022-12-10T04:29:42;1.00;99.90
29713;DHT22;16623;53.632;10.016;2022-12-10T04:32:08;1.00;99.90
29713;DHT22;16623;53.632;10.016;2022-12-10T04:34:33;1.00;99.90
29713;DHT22;16623;53.632;10.016;2022-12-10T04:36:59;0.90;99.90
29713;DHT22;16623;53.632;10.016;2022-12-10T04:39:26;0.90;99.90
29713;DHT22;16623;53.632;10.016;2022-12-10T04:41:51;0.90;99.90
29713;DHT22;16623;53.632;10.016;2022-12-10T04:44:18;0.90;99.90
29713;DHT22;16623;53.632;10.016;2022-12-10T04:46:43;0.80;99.90
29713;DHT22;16623;53.632;10.016;2022-12-10T04:49:09;0.60;99.90
29713;DHT22;16623;53.632;10.016;2022-12-10T04:51:35;0.80;99.90
29713;DHT22;16623;53.632;10.016;2022-12-10T04:54:00;0.90;99.90
29713;DHT22;16623;53.632;10.016;2022-12-10T04:56:26;0.80;99.90
29713;DHT22;16623;53.632;10.016;2022-12-10T04:58:52;0.70;99.90
29713;DHT22;16623;53.632;10.016;2022-12-10T05:01:19;0.70;99.90
29713;DHT22;16623;53.632;10.016;2022-12-10T05:03:45;0.60;99.90
29713;DHT22;16623;53.632;10.016;2022-12-10T05:06:13;0.60;99.90
29713;DHT22;16623;53.632;10.016;2022-12-10T05:08:39;0.50;99.90
29713;DHT22;16623;53.632;10.016;2022-12-10T05:11:08;0.40;99.90
29713;DHT22;16623;53.632;10.016;2022-12-10T05:13:34;0.50;99.90
29713;DHT22;16623;53.632;10.016;2022-12-10T05:16:04;0.40;99.90
29713;DHT22;16623;53.632;10.016;2022-12-10T05:18:30;0.50;99.90
29713;DHT22;16623;53.632;10.016;2022-12-10T05:20:58;0.60;99.90
29713;DHT22;16623;53.632;10.016;2022-12-10T05:23:24;0.70;99.90
29713;DHT22;16623;53.632;10.016;2022-12-10T05:28:35;0.90;99.90
29713;DHT22;16623;53.632;10.016;2022-12-10T05:31:02;0.80;99.90
29713;DHT22;16623;53.632;10.016;2022-12-10T05:33:28;0.80;99.90
29713;DHT22;16623;53.632;10.016;2022-12-10T05:36:01;0.70;99.90
29713;DHT22;16623;53.632;10.016;2022-12-10T05:38:29;0.60;99.90
29713;DHT22;16623;53.632;10.016;2022-12-10T05:41:09;0.40;99.90
29713;DHT22;16623;53.632;10.016;2022-12-10T05:43:35;0.40;99.90
29713;DHT22;16623;53.632;10.016;2022-12-10T05:46:05;0.50;99.90
29713;DHT22;16623;53.632;10.016;2022-12-10T05:48:31;0.50;99.90
29713;DHT22;16623;53.632;10.016;2022-12-10T05:50:57;0.30;99.90
29713;DHT22;16623;53.632;10.016;2022-12-10T05:53:23;0.40;99.90
29713;DHT22;16623;53.632;10.016;2022-12-10T05:55:50;0.40;99.90
29713;DHT22;16623;53.632;10.016;2022-12-10T05:58:15;0.40;99.90
29713;DHT22;16623;53.632;10.016;2022-12-10T06:00:41;0.50;99.90
29713;DHT22;16623;53.632;10.016;2022-12-10T06:03:08;0.50;99.90
29713;DHT22;16623;53.632;10.016;2022-12-10T06:05:38;0.50;99.90
29713;DHT22;16623;53.632;10.016;2022-12-10T06:08:04;-0.10;99.90
29713;DHT22;16623;53.632;10.016;2022-12-10T06:10:30;0.50;99.90
29713;DHT22;16623;53.632;10.016;2022-12-10T06:12:55;0.50;99.90
29713;DHT22;16623;53.632;10.016;2022-12-10T06:15:20;0.50;99.90
29713;DHT22;16623;53.632;10.016;2022-12-10T06:17:46;0.50;99.90
29713;DHT22;16623;53.632;10.016;2022-12-10T06:20:11;0.50;99.90
29713;DHT22;16623;53.632;10.016;2022-12-10T06:22:37;0.50;99.90
29713;DHT22;16623;53.632;10.016;2022-12-10T06:25:02;0.50;99.90
29713;DHT22;16623;53.632;10.016;2022-12-10T06:27:30;0.30;99.90
29713;DHT22;16623;53.632;10.016;2022-12-10T06:29:56;0.30;99.90
29713;DHT22;16623;53.632;10.016;2022-12-10T06:32:22;0.30;99.90
29713;DHT22;16623;53.632;10.016;2022-12-10T06:34:47;0.30;99.90
29713;DHT22;16623;53.632;10.016;2022-12-10T06:37:12;0.40;99.90
29713;DHT22;16623;53.632;10.016;2022-12-10T06:39:38;0.30;99.90
29713;DHT22;16623;53.632;10.016;2022-12-10T06:42:03;0.30;99.90
29713;DHT22;16623;53.632;10.016;2022-12-10T06:44:30;0.30;99.90
29713;DHT22;16623;53.632;10.016;2022-12-10T06:46:56;0.30;99.90
29713;DHT22;16623;53.632;10.016;2022-12-10T06:49:24;0.20;99.90
29713;DHT22;16623;53.632;10.016;2022-12-10T06:51:50;0.40;99.90
29713;DHT22;16623;53.632;10.016;2022-12-10T06:54:16;0.50;99.90
29713;DHT22;16623;53.632;10.016;2022-12-10T06:56:41;0.50;99.90
29713;DHT22;16623;53.632;10.016;2022-12-10T06:59:07;0.60;99.90
29713;DHT22;16623;53.632;10.016;2022-12-10T07:01:32;0.60;99.90
29713;DHT22;16623;53.632;10.016;2022-12-10T07:03:58;0.60;99.90
29713;DHT22;16623;53.632;10.016;2022-12-10T07:06:25;0.50;99.90
29713;DHT22;16623;53.632;10.016;2022-12-10T07:08:51;0.30;99.90
29713;DHT22;16623;53.632;10.016;2022-12-10T07:11:19;0.20;99.90
29713;DHT22;16623;53.632;10.016;2022-12-10T07:13:46;0.10;99.90
29713;DHT22;16623;53.632;10.016;2022-12-10T07:16:13;0.10;99.90
29713;DHT22;16623;53.632;10.016;2022-12-10T07:18:39;0.00;99.90
29713;DHT22;16623;53.632;10.016;2022-12-10T07:21:15;-0.10;99.90
29713;DHT22;16623;53.632;10.016;2022-12-10T07:23:41;0.00;99.90
29713;DHT22;16623;53.632;10.016;2022-12-10T07:26:06;0.00;99.90
29713;DHT22;16623;53.632;10.016;2022-12-10T07:28:33;-0.10;99.90
29713;DHT22;16623;53.632;10.016;2022-12-10T07:31:05;0.10;99.90
29713;DHT22;16623;53.632;10.016;2022-12-10T07:33:32;0.10;99.90
29713;DHT22;16623;53.632;10.016;2022-12-10T07:35:57;0.00;99.90
29713;DHT22;16623;53.632;10.016;2022-12-10T07:38:24;-0.10;99.90
29713;DHT22;16623;53.632;10.016;2022-12-10T07:40:50;-0.10;99.90
29713;DHT22;16623;53.632;10.016;2022-12-10T07:43:17;0.00;99.90
29713;DHT22;16623;53.632;10.016;2022-12-10T07:45:42;0.00;99.90
29713;DHT22;16623;53.632;10.016;2022-12-10T07:53:56;-0.20;99.90
29713;DHT22;16623;53.632;10.016;2022-12-10T07:56:23;-0.30;99.90
29713;DHT22;16623;53.632;10.016;2022-12-10T07:58:49;-0.30;99.90
29713;DHT22;16623;53.632;10.016;2022-12-10T08:01:17;-0.30;99.90
29713;DHT22;16623;53.632;10.016;2022-12-10T08:03:43;-0.10;99.90
29713;DHT22;16623;53.632;10.016;2022-12-10T08:06:11;-0.10;99.90
29713;DHT22;16623;53.632;10.016;2022-12-10T08:08:37;0.00;99.90
29713;DHT22;16623;53.632;10.016;2022-12-10T08:11:04;-1.10;99.90
29713;DHT22;16623;53.632;10.016;2022-12-10T08:16:14;-0.10;99.90
29713;DHT22;16623;53.632;10.016;2022-12-10T08:18:40;-0.20;99.90
29713;DHT22;16623;53.632;10.016;2022-12-10T08:21:09;-0.30;99.90
29713;DHT22;16623;53.632;10.016;2022-12-10T08:23:36;-0.40;99.90
29713;DHT22;16623;53.632;10.016;2022-12-10T08:26:18;-0.40;99.90
29713;DHT22;16623;53.632;10.016;2022-12-10T08:28:44;-0.30;99.90
29713;DHT22;16623;53.632;10.016;2022-12-10T08:31:11;-0.30;99.90
29713;DHT22;16623;53.632;10.016;2022-12-10T08:33:37;-0.10;99.90
29713;DHT22;16623;53.632;10.016;2022-12-10T08:36:04;-0.10;99.90
29713;DHT22;16623;53.632;10.016;2022-12-10T08:38:30;0.00;99.90
29713;DHT22;16623;53.632;10.016;2022-12-10T08:40:56;0.00;99.90
29713;DHT22;16623;53.632;10.016;2022-12-10T08:43:22;0.10;99.90
29713;DHT22;16623;53.632;10.016;2022-12-10T08:45:47;0.00;99.90
29713;DHT22;16623;53.632;10.016;2022-12-10T08:48:13;-0.30;99.90
29713;DHT22;16623;53.632;10.016;2022-12-10T08:50:39;-0.40;99.90
29713;DHT22;16623;53.632;10.016;2022-12-10T08:53:05;-0.50;99.90
29713;DHT22;16623;53.632;10.016;2022-12-10T08:55:30;-0.60;99.90
29713;DHT22;16623;53.632;10.016;2022-12-10T08:57:57;-0.50;99.90
29713;DHT22;16623;53.632;10.016;2022-12-10T09:00:23;-0.60;99.90
29713;DHT22;16623;53.632;10.016;2022-12-10T09:02:48;-0.60;99.90
29713;DHT22;16623;53.632;10.016;2022-12-10T09:05:14;-0.50;99.90
29713;DHT22;16623;53.632;10.016;2022-12-10T09:07:39;-0.50;99.90
29713;DHT22;16623;53.632;10.016;2022-12-10T09:10:05;-0.50;99.90
29713;DHT22;16623;53.632;10.016;2022-12-10T09:12:33;-0.60;99.90
29713;DHT22;16623;53.632;10.016;2022-12-10T09:14:59;-0.60;99.90
29713;DHT22;16623;53.632;10.016;2022-12-10T09:17:25;-0.70;99.90
29713;DHT22;16623;53.632;10.016;2022-12-10T09:19:50;-0.70;99.90
29713;DHT22;16623;53.632;10.016;2022-12-10T09:22:16;-0.70;99.90
29713;DHT22;16623;53.632;10.016;2022-12-10T09:24:41;-0.70;99.90
29713;DHT22;16623;53.632;10.016;2022-12-10T09:27:06;-0.60;99.90
29713;DHT22;16623;53.632;10.016;2022-12-10T09:29:33;-0.70;99.90
29713;DHT22;16623;53.632;10.016;2022-12-10T09:31:59;-0.80;99.90
29713;DHT22;16623;53.632;10.016;2022-12-10T09:34:24;-2.30;99.90
29713;DHT22;16623;53.632;10.016;2022-12-10T09:36:50;-0.80;99.90
29713;DHT22;16623;53.632;10.016;2022-12-10T09:39:15;-0.70;99.90
29713;DHT22;16623;53.632;10.016;2022-12-10T09:41:56;-0.60;99.90
29713;DHT22;16623;53.632;10.016;2022-12-10T09:44:54;-0.50;99.90
29713;DHT22;16623;53.632;10.016;2022-12-10T09:47:26;-0.40;99.90
29713;DHT22;16623;53.632;10.016;2022-12-10T09:50:48;-0.40;99.90
29713;DHT22;16623;53.632;10.016;2022-12-10T09:53:17;-0.50;99.90
29713;DHT22;16623;53.632;10.016;2022-12-10T09:55:46;-0.50;99.90
29713;DHT22;16623;53.632;10.016;2022-12-10T09:58:21;-0.90;99.90
29713;DHT22;16623;53.632;10.016;2022-12-10T10:00:51;-0.40;99.90
29713;DHT22;16623;53.632;10.016;2022-12-10T10:03:18;-0.40;99.90
29713;DHT22;16623;53.632;10.016;2022-12-10T10:05:50;-0.50;99.90
29713;DHT22;16623;53.632;10.016;2022-12-10T10:08:36;-0.50;99.90
29713;DHT22;16623;53.632;10.016;2022-12-10T10:11:04;-0.50;99.90
29713;DHT22;16623;53.632;10.016;2022-12-10T10:13:43;-0.50;99.90
29713;DHT22;16623;53.632;10.016;2022-12-10T10:19:17;-0.40;99.90
29713;DHT22;16623;53.632;10.016;2022-12-10T10:21:45;-0.30;99.90
29713;DHT22;16623;53.632;10.016;2022-12-10T10:24:21;-0.30;99.90
29713;DHT22;16623;53.632;10.016;2022-12-10T10:26:48;-0.20;99.90
29713;DHT22;16623;53.632;10.016;2022-12-10T10:29:20;-0.30;99.90
29713;DHT22;16623;53.632;10.016;2022-12-10T10:31:46;-0.20;99.90
29713;DHT22;16623;53.632;10.016;2022-12-10T10:34:16;-0.10;99.90
29713;DHT22;16623;53.632;10.016;2022-12-10T10:36:42;0.10;99.90
29713;DHT22;16623;53.632;10.016;2022-12-10T10:39:11;0.10;99.90
29713;DHT22;16623;53.632;10.016;2022-12-10T10:41:38;0.20;99.90
29713;DHT22;16623;53.632;10.016;2022-12-10T10:44:06;0.20;99.90
29713;DHT22;16623;53.632;10.016;2022-12-10T10:46:38;0.10;99.90
29713;DHT22;16623;53.632;10.016;2022-12-10T10:49:31;-0.20;99.90
29713;DHT22;16623;53.632;10.016;2022-12-10T10:52:05;-0.20;99.90
29713;DHT22;16623;53.632;10.016;2022-12-10T10:54:45;-0.20;99.90
29713;DHT22;16623;53.632;10.016;2022-12-10T10:57:29;-0.20;99.90
29713;DHT22;16623;53.632;10.016;2022-12-10T11:00:04;0.00;99.90
29713;DHT22;16623;53.632;10.016;2022-12-10T11:02:33;0.00;99.90
29713;DHT22;16623;53.632;10.016;2022-12-10T11:05:23;0.10;99.90
29713;DHT22;16623;53.632;10.016;2022-12-10T11:08:02;0.10;99.90
29713;DHT22;16623;53.632;10.016;2022-12-10T11:10:29;0.10;99.90
29713;DHT22;16623;53.632;10.016;2022-12-10T11:13:04;0.10;99.90
29713;DHT22;16623;53.632;10.016;2022-12-10T11:15:38;0.20;99.90
29713;DHT22;16623;53.632;10.016;2022-12-10T11:18:24;0.30;99.90
29713;DHT22;16623;53.632;10.016;2022-12-10T11:23:37;0.40;99.90
29713;DHT22;16623;53.632;10.016;2022-12-10T11:26:29;0.40;99.90
29713;DHT22;16623;53.632;10.016;2022-12-10T11:32:13;0.40;99.90
29713;DHT22;16623;53.632;10.016;2022-12-10T11:34:53;0.30;99.90
29713;DHT22;16623;53.632;10.016;2022-12-10T11:37:36;0.30;99.90
29713;DHT22;16623;53.632;10.016;2022-12-10T11:40:15;0.40;99.90
29713;DHT22;16623;53.632;10.016;2022-12-10T11:51:02;-0.10;99.90
29713;DHT22;16623;53.632;10.016;2022-12-10T11:56:44;-0.20;99.90
29713;DHT22;16623;53.632;10.016;2022-12-10T11:59:23;-0.10;99.90
29713;DHT22;16623;53.632;10.016;2022-12-10T12:02:21;0.10;99.90
29713;DHT22;16623;53.632;10.016;2022-12-10T12:05:16;0.30;99.90
29713;DHT22;16623;53.632;10.016;2022-12-10T12:10:29;0.20;99.90
29713;DHT22;16623;53.632;10.016;2022-12-10T12:13:09;0.30;99.90
29713;DHT22;16623;53.632;10.016;2022-12-10T12:15:39;0.20;99.90
29713;DHT22;16623;53.632;10.016;2022-12-10T12:18:23;0.10;99.90
29713;DHT22;16623;53.632;10.016;2022-12-10T12:20:59;0.00;99.90
29713;DHT22;16623;53.632;10.016;2022-12-10T12:26:03;-0.10;99.90
29713;DHT22;16623;53.632;10.016;2022-12-10T12:28:36;-0.20;99.90
29713;DHT22;16623;53.632;10.016;2022-12-10T12:31:29;-0.10;99.90
29713;DHT22;16623;53.632;10.016;2022-12-10T12:34:01;-0.10;99.90
29713;DHT22;16623;53.632;10.016;2022-12-10T12:36:31;-0.10;99.90
29713;DHT22;16623;53.632;10.016;2022-12-10T12:39:05;-0.20;99.90
29713;DHT22;16623;53.632;10.016;2022-12-10T12:44:26;-0.10;99.90
29713;DHT22;16623;53.632;10.016;2022-12-10T12:46:57;0.00;99.90
29713;DHT22;16623;53.632;10.016;2022-12-10T12:49:35;0.00;99.90
29713;DHT22;16623;53.632;10.016;2022-12-10T12:54:46;0.10;99.90
29713;DHT22;16623;53.632;10.016;2022-12-10T12:57:42;0.20;99.90
29713;DHT22;16623;53.632;10.016;2022-12-10T13:00:13;0.10;99.90
29713;DHT22;16623;53.632;10.016;2022-12-10T13:03:24;0.00;99.90
29713;DHT22;16623;53.632;10.016;2022-12-10T13:05:52;0.00;99.90
29713;DHT22;16623;53.632;10.016;2022-12-10T13:10:59;-0.10;99.90
29713;DHT22;16623;53.632;10.016;2022-12-10T13:13:33;0.00;99.90
29713;DHT22;16623;53.632;10.016;2022-12-10T13:22:02;0.30;99.90
29713;DHT22;16623;53.632;10.016;2022-12-10T13:40:22;0.10;99.90
29713;DHT22;16623;53.632;10.016;2022-12-10T13:42:56;-0.20;99.90
29713;DHT22;16623;53.632;10.016;2022-12-10T13:45:41;-0.40;99.90
29713;DHT22;16623;53.632;10.016;2022-12-10T13:48:25;-0.30;99.90
29713;DHT22;16623;53.632;10.016;2022-12-10T13:54:05;0.00;99.90
29713;DHT22;16623;53.632;10.016;2022-12-10T13:56:41;0.10;99.90
29713;DHT22;16623;53.632;10.016;2022-12-10T14:08:13;0.30;99.90
29713;DHT22;16623;53.632;10.016;2022-12-10T14:10:42;0.30;99.90
29713;DHT22;16623;53.632;10.016;2022-12-10T14:13:13;0.40;99.90
29713;DHT22;16623;53.632;10.016;2022-12-10T17:35:52;-0.40;99.90
29713;DHT22;16623;53.632;10.016;2022-12-10T17:38:21;-0.40;99.90
29713;DHT22;16623;53.632;10.016;2022-12-10T17:40:47;-0.50;99.90
29713;DHT22;16623;53.632;10.016;2022-12-10T17:43:12;-0.60;99.90
29713;DHT22;16623;53.632;10.016;2022-12-10T17:45:42;-0.70;99.90
29713;DHT22;16623;53.632;10.016;2022-12-10T17:48:12;-0.70;99.90
29713;DHT22;16623;53.632;10.016;2022-12-10T17:50:38;-0.80;99.90
29713;DHT22;16623;53.632;10.016;2022-12-10T17:53:05;-0.70;99.90
29713;DHT22;16623;53.632;10.016;2022-12-10T17:55:35;-0.80;99.90
29713;DHT22;16623;53.632;10.016;2022-12-10T17:58:01;-0.80;99.90
29713;DHT22;16623;53.632;10.016;2022-12-10T18:00:31;-0.80;99.90
29713;DHT22;16623;53.632;10.016;2022-12-10T18:02:58;-0.90;99.90
29713;DHT22;16623;53.632;10.016;2022-12-10T18:05:24;-0.90;99.90
29713;DHT22;16623;53.632;10.016;2022-12-10T18:07:51;-0.90;99.90
29713;DHT22;16623;53.632;10.016;2022-12-10T18:10:20;-0.90;99.90
29713;DHT22;16623;53.632;10.016;2022-12-10T18:12:46;-1.00;99.90
29713;DHT22;16623;53.632;10.016;2022-12-10T18:15:12;-1.00;99.90
29713;DHT22;16623;53.632;10.016;2022-12-10T18:17:39;-0.80;99.90
29713;DHT22;16623;53.632;10.016;2022-12-10T18:20:07;-1.00;99.90
29713;DHT22;16623;53.632;10.016;2022-12-10T18:22:34;-1.00;99.90
29713;DHT22;16623;53.632;10.016;2022-12-10T18:25:01;-1.10;99.90
29713;DHT22;16623;53.632;10.016;2022-12-10T18:27:26;-1.10;99.90
29713;DHT22;16623;53.632;10.016;2022-12-10T18:29:52;-1.10;99.90
29713;DHT22;16623;53.632;10.016;2022-12-10T18:32:17;-1.10;99.90
29713;DHT22;16623;53.632;10.016;2022-12-10T18:34:43;-1.10;99.90
29713;DHT22;16623;53.632;10.016;2022-12-10T18:37:09;-1.10;99.90
29713;DHT22;16623;53.632;10.016;2022-12-10T18:39:35;-1.00;99.90
29713;DHT22;16623;53.632;10.016;2022-12-10T18:42:02;-1.10;99.90
29713;DHT22;16623;53.632;10.016;2022-12-10T18:44:28;-1.10;99.90
29713;DHT22;16623;53.632;10.016;2022-12-10T18:46:56;-1.10;99.90
29713;DHT22;16623;53.632;10.016;2022-12-10T18:49:22;-1.10;99.90
29713;DHT22;16623;53.632;10.016;2022-12-10T18:51:49;-1.10;99.90
29713;DHT22;16623;53.632;10.016;2022-12-10T18:54:15;-1.00;99.90
29713;DHT22;16623;53.632;10.016;2022-12-10T18:56:40;-1.00;99.90
29713;DHT22;16623;53.632;10.016;2022-12-10T18:59:11;-1.00;99.90
29713;DHT22;16623;53.632;10.016;2022-12-10T19:01:37;-1.10;99.90
29713;DHT22;16623;53.632;10.016;2022-12-10T19:04:02;0.00;99.90
29713;DHT22;16623;53.632;10.016;2022-12-10T19:06:29;-1.00;99.90
29713;DHT22;16623;53.632;10.016;2022-12-10T19:08:56;-0.90;99.90
29713;DHT22;16623;53.632;10.016;2022-12-10T19:11:23;-0.80;99.90
29713;DHT22;16623;53.632;10.016;2022-12-10T19:13:49;-0.90;99.90
29713;DHT22;16623;53.632;10.016;2022-12-10T19:16:21;-0.90;99.90
29713;DHT22;16623;53.632;10.016;2022-12-10T19:18:51;-0.90;99.90
29713;DHT22;16623;53.632;10.016;2022-12-10T19:21:17;-0.70;99.90
29713;DHT22;16623;53.632;10.016;2022-12-10T19:23:43;-0.80;99.90
29713;DHT22;16623;53.632;10.016;2022-12-10T19:26:24;-0.90;99.90
29713;DHT22;16623;53.632;10.016;2022-12-10T19:28:52;-0.80;99.90
29713;DHT22;16623;53.632;10.016;2022-12-10T19:31:17;-0.60;99.90
29713;DHT22;16623;53.632;10.016;2022-12-10T19:33:43;-0.70;99.90
29713;DHT22;16623;53.632;10.016;2022-12-10T19:36:25;-0.60;99.90
29713;DHT22;16623;53.632;10.016;2022-12-10T19:38:52;-0.60;99.90
29713;DHT22;16623;53.632;10.016;2022-12-10T19:41:17;-0.60;99.90
29713;DHT22;16623;53.632;10.016;2022-12-10T19:43:43;-0.60;99.90
29713;DHT22;16623;53.632;10.016;2022-12-10T19:46:20;-0.60;99.90
29713;DHT22;16623;53.632;10.016;2022-12-10T19:48:46;-0.50;99.90
29713;DHT22;16623;53.632;10.016;2022-12-10T19:51:12;-0.50;99.90
29713;DHT22;16623;53.632;10.016;2022-12-10T19:53:39;-0.40;99.90
29713;DHT22;16623;53.632;10.016;2022-12-10T19:56:20;-0.40;99.90
29713;DHT22;16623;53.632;10.016;2022-12-10T19:58:48;-0.60;99.90
29713;DHT22;16623;53.632;10.016;2022-12-10T20:01:14;-0.60;99.90
29713;DHT22;16623;53.632;10.016;2022-12-10T20:03:40;-0.70;99.90
29713;DHT22;16623;53.632;10.016;2022-12-10T20:06:26;-0.80;99.90
29713;DHT22;16623;53.632;10.016;2022-12-10T20:09:02;-0.70;99.90
29713;DHT22;16623;53.632;10.016;2022-12-10T20:11:29;-0.70;99.90
29713;DHT22;16623;53.632;10.016;2022-12-10T20:13:55;-0.60;99.90
29713;DHT22;16623;53.632;10.016;2022-12-10T20:16:23;-0.50;99.90
29713;DHT22;16623;53.632;10.016;2022-12-10T20:18:49;-0.50;99.90
29713;DHT22;16623;53.632;10.016;2022-12-10T20:21:15;-0.50;99.90
29713;DHT22;16623;53.632;10.016;2022-12-10T20:23:41;-0.40;99.90